This is the latest recevied weather packets stored in our database for station/object CE4JVU-10. If no packets are shown the sender has not sent any weather packets the latest 10 day(s).
| Time | Temp. | Humidity | Pressure | Rain* | Wind** | Luminosity | Snow |
|---|---|---|---|---|---|---|---|
| 1777611303 | 18.33° C | 57% | 982.2 hPa | - | - | - | - |
| 1777609504 | 18.89° C | 57% | 982 hPa | - | - | - | - |
| 1777607704 | 18.89° C | 57% | 982 hPa | - | - | - | - |
| 1777605904 | 19.44° C | 56% | 981.9 hPa | - | - | - | - |
| 1777604104 | 19.44° C | 57% | 981.8 hPa | - | - | - | - |
| 1777602304 | 19.44° C | 57% | 981.6 hPa | - | - | - | - |
| 1777600504 | 20° C | 55% | 981 hPa | - | - | - | - |
| 1777598704 | 19.44° C | 56% | 980.6 hPa | - | - | - | - |
| 1777596903 | 19.44° C | 55% | 980.2 hPa | - | - | - | - |
| 1777595103 | 20° C | 54% | 980 hPa | - | - | - | - |
| 1777593303 | 19.44° C | 56% | 979.5 hPa | - | - | - | - |
| 1777591503 | 20° C | 54% | 979.2 hPa | - | - | - | - |
| 1777589703 | 20.56° C | 57% | 978.9 hPa | - | - | - | - |
| 1777587904 | 20.56° C | 56% | 978.4 hPa | - | - | - | - |
| 1777586104 | 21.67° C | 55% | 977.9 hPa | - | - | - | - |
| 1777584304 | 22.22° C | 51% | 977.5 hPa | - | - | - | - |
| 1777582504 | 23.33° C | 48% | 977.3 hPa | - | - | - | - |
| 1777580704 | 23.33° C | 48% | 977.2 hPa | - | - | - | - |
| 1777578904 | 23.33° C | 47% | 977.2 hPa | - | - | - | - |
| 1777577104 | 23.33° C | 49% | 977.1 hPa | - | - | - | - |
| 1777575303 | 22.78° C | 51% | 977.1 hPa | - | - | - | - |
| 1777573503 | 22.22° C | 52% | 977 hPa | - | - | - | - |
| 1777571703 | 21.67° C | 53% | 977.1 hPa | - | - | - | - |
| 1777569903 | 20.56° C | 57% | 977.6 hPa | - | - | - | - |
| 1777568103 | 20° C | 58% | 977.9 hPa | - | - | - | - |
* Rain since midnight (hover to see other rain measurements)
** Current wind speed in m/s (hover to see current wind gust speed)